createdAt,value
2022-08-17T00:01:51.716Z,8.03
2022-08-17T00:04:21.734Z,5.00
2022-08-17T00:06:49.775Z,5.53
2022-08-17T00:09:18.393Z,5.07
2022-08-17T00:12:40.764Z,8.47
2022-08-17T00:14:35.090Z,5.27
2022-08-17T00:17:03.678Z,5.07
2022-08-17T00:19:32.953Z,4.73
2022-08-17T00:22:32.378Z,5.60
2022-08-17T00:24:50.358Z,5.30
2022-08-17T00:27:17.821Z,4.83
2022-08-17T00:29:45.817Z,5.53
2022-08-17T00:33:14.542Z,5.00
2022-08-17T00:35:04.574Z,5.73
2022-08-17T00:37:32.069Z,5.47
2022-08-17T00:39:59.659Z,5.43
2022-08-17T00:42:30.982Z,5.70
2022-08-17T00:44:58.972Z,6.73
2022-08-17T00:47:26.491Z,5.33
2022-08-17T00:49:53.958Z,5.37
2022-08-17T00:52:25.353Z,6.10
2022-08-17T00:54:54.705Z,5.07
2022-08-17T00:57:23.649Z,9.50
2022-08-17T01:00:02.354Z,4.60
2022-08-17T01:02:40.481Z,4.93
2022-08-17T01:05:11.184Z,4.57
2022-08-17T01:07:40.698Z,4.30
2022-08-17T01:10:57.416Z,5.50
2022-08-17T01:12:58.744Z,5.00
2022-08-17T01:15:26.336Z,4.93
2022-08-17T01:17:53.877Z,6.97
2022-08-17T01:20:21.448Z,5.17
2022-08-17T01:22:50.520Z,4.33
2022-08-17T01:25:18.647Z,4.27
2022-08-17T01:27:46.098Z,6.70
2022-08-17T01:30:56.894Z,5.63
2022-08-17T01:33:02.039Z,4.90
2022-08-17T01:35:29.520Z,4.13
2022-08-17T01:37:58.385Z,4.60
2022-08-17T01:40:28.445Z,4.70
2022-08-17T01:42:57.539Z,4.33
2022-08-17T01:45:28.228Z,7.80
2022-08-17T01:47:55.835Z,4.80
2022-08-17T01:50:24.751Z,4.47
2022-08-17T01:52:54.092Z,4.07
2022-08-17T01:55:27.290Z,4.40
2022-08-17T01:57:55.033Z,4.20
2022-08-17T02:00:22.656Z,4.13
2022-08-17T02:02:50.325Z,4.37
2022-08-17T02:05:18.347Z,6.40
2022-08-17T02:07:59.433Z,4.43
2022-08-17T02:10:33.938Z,4.77
2022-08-17T02:13:02.336Z,4.07
2022-08-17T02:15:29.853Z,4.30
2022-08-17T02:17:57.342Z,4.50
2022-08-17T02:20:41.579Z,4.13
2022-08-17T02:23:10.948Z,6.53
2022-08-17T02:25:40.295Z,4.40
2022-08-17T02:28:07.838Z,6.50
2022-08-17T02:30:59.427Z,4.83
2022-08-17T02:33:23.328Z,4.33
2022-08-17T02:36:10.512Z,5.07
2022-08-17T02:38:38.153Z,5.30
2022-08-17T02:41:07.121Z,5.13
2022-08-17T02:43:34.889Z,4.30
2022-08-17T02:46:02.379Z,4.10
2022-08-17T02:48:31.058Z,4.30
2022-08-17T02:50:59.238Z,5.33
2022-08-17T02:53:26.725Z,4.23
2022-08-17T02:55:54.515Z,4.20
2022-08-17T02:58:32.061Z,4.57
2022-08-17T03:01:03.595Z,4.83
2022-08-17T03:03:31.170Z,4.50
2022-08-17T03:05:58.718Z,5.00
2022-08-17T03:08:26.332Z,5.20
2022-08-17T03:10:53.947Z,4.17
2022-08-17T03:13:22.751Z,4.90
2022-08-17T03:15:50.633Z,5.23
2022-08-17T03:18:25.097Z,4.77
2022-08-17T03:20:53.642Z,5.20
2022-08-17T03:23:24.290Z,5.00
2022-08-17T03:25:54.146Z,5.00
2022-08-17T03:28:23.391Z,8.30
2022-08-17T03:30:52.060Z,5.00
2022-08-17T03:33:19.871Z,5.07
2022-08-17T03:35:47.555Z,5.27
2022-08-17T03:38:17.119Z,4.93
2022-08-17T03:40:58.454Z,4.30
2022-08-17T03:43:29.776Z,4.20
2022-08-17T03:46:27.800Z,4.63
2022-08-17T03:49:20.619Z,5.83
2022-08-17T03:52:05.429Z,5.13
2022-08-17T03:54:50.293Z,4.00
2022-08-17T03:57:19.168Z,5.00
2022-08-17T03:59:48.116Z,4.37
2022-08-17T04:02:18.499Z,4.47
2022-08-17T04:04:45.977Z,4.97
2022-08-17T04:07:13.640Z,4.63
2022-08-17T04:09:42.734Z,5.53
2022-08-17T04:12:10.451Z,5.33
2022-08-17T04:14:51.731Z,4.40
2022-08-17T04:17:23.432Z,7.83
2022-08-17T04:19:50.892Z,10.80
2022-08-17T04:22:32.048Z,5.93
2022-08-17T04:25:03.603Z,4.83
2022-08-17T04:27:31.038Z,3.87
2022-08-17T04:29:58.526Z,5.37
2022-08-17T04:33:05.488Z,6.03
2022-08-17T04:35:18.181Z,3.73
2022-08-17T04:37:46.214Z,4.67
2022-08-17T04:40:31.247Z,5.93
2022-08-17T04:43:02.556Z,5.90
2022-08-17T04:45:31.963Z,5.20
2022-08-17T04:48:01.215Z,4.40
2022-08-17T04:50:28.705Z,4.53
2022-08-17T04:52:56.609Z,4.70
2022-08-17T04:55:24.281Z,6.03
2022-08-17T04:57:51.705Z,4.67
2022-08-17T05:00:19.286Z,4.20
2022-08-17T05:02:50.292Z,8.00
2022-08-17T05:05:20.961Z,6.23
2022-08-17T05:07:48.728Z,4.83
2022-08-17T05:10:16.317Z,4.30
2022-08-17T05:12:43.835Z,4.67
2022-08-17T05:15:12.346Z,6.93
2022-08-17T05:17:39.769Z,4.93
2022-08-17T05:20:07.757Z,4.03
2022-08-17T05:22:36.727Z,4.60
2022-08-17T05:25:04.571Z,7.20
2022-08-17T05:27:35.420Z,4.13
2022-08-17T05:30:03.584Z,5.07
2022-08-17T05:32:39.626Z,4.50
2022-08-17T05:35:08.243Z,4.10
2022-08-17T05:37:37.041Z,4.77
2022-08-17T05:40:04.998Z,4.20
2022-08-17T05:42:32.492Z,4.47
2022-08-17T05:44:59.934Z,4.43
2022-08-17T05:47:27.823Z,4.70
2022-08-17T05:49:55.575Z,5.67
2022-08-17T05:52:26.182Z,4.20
2022-08-17T05:55:03.673Z,4.50
2022-08-17T05:57:43.631Z,5.83
2022-08-17T06:00:26.284Z,5.20
2022-08-17T06:03:13.269Z,5.03
2022-08-17T06:05:45.014Z,4.43
2022-08-17T06:08:16.267Z,5.30
2022-08-17T06:10:48.583Z,4.47
2022-08-17T06:13:23.369Z,4.77
2022-08-17T06:15:55.726Z,6.13
2022-08-17T06:18:24.056Z,4.43
2022-08-17T06:20:55.607Z,4.73
2022-08-17T06:23:27.250Z,5.50
2022-08-17T06:25:59.703Z,4.00
2022-08-17T06:28:30.125Z,4.73
2022-08-17T06:31:01.481Z,4.93
2022-08-17T06:33:34.171Z,5.07
2022-08-17T06:36:09.379Z,4.30
2022-08-17T06:38:42.506Z,5.00
2022-08-17T06:41:16.588Z,4.43
2022-08-17T06:43:49.607Z,4.93
2022-08-17T06:46:20.143Z,5.87
2022-08-17T06:48:50.224Z,4.40
2022-08-17T06:51:19.712Z,4.60
2022-08-17T06:53:49.453Z,5.20
2022-08-17T06:56:24.664Z,6.40
2022-08-17T06:59:15.317Z,8.60
2022-08-17T07:01:42.963Z,5.47
2022-08-17T07:04:12.359Z,7.43
2022-08-17T07:06:41.761Z,9.83
2022-08-17T07:09:11.322Z,6.30
2022-08-17T07:11:41.988Z,6.37
2022-08-17T07:14:17.488Z,4.80
2022-08-17T07:16:47.058Z,5.23
2022-08-17T07:19:15.903Z,9.83
2022-08-17T07:21:47.691Z,4.83
2022-08-17T07:24:26.188Z,4.30
2022-08-17T07:27:13.809Z,6.10
2022-08-17T07:29:44.021Z,4.60
2022-08-17T07:32:12.352Z,5.93
2022-08-17T07:35:00.684Z,4.10
2022-08-17T07:37:28.124Z,4.60
2022-08-17T07:40:15.278Z,6.10
2022-08-17T07:43:01.116Z,5.80
2022-08-17T07:45:48.779Z,4.73
2022-08-17T07:48:22.428Z,7.10
2022-08-17T07:50:50.834Z,5.87
2022-08-17T07:53:19.168Z,4.70
2022-08-17T07:55:46.768Z,4.93
2022-08-17T07:58:18.698Z,4.83
2022-08-17T08:00:46.436Z,8.03
2022-08-17T08:03:26.018Z,7.33
2022-08-17T08:05:55.620Z,5.20
2022-08-17T08:08:28.193Z,6.63
2022-08-17T08:11:00.495Z,7.93
2022-08-17T08:13:30.692Z,7.33
2022-08-17T08:16:14.330Z,7.13
2022-08-17T08:18:55.557Z,6.20
2022-08-17T08:21:29.365Z,5.50
2022-08-17T08:24:14.508Z,7.53
2022-08-17T08:26:46.359Z,4.33
2022-08-17T08:29:28.190Z,5.93
2022-08-17T08:31:59.762Z,5.37
2022-08-17T08:34:58.973Z,7.93
2022-08-17T08:37:32.260Z,6.47
2022-08-17T08:40:04.860Z,11.30
2022-08-17T08:42:38.361Z,7.97
2022-08-17T08:45:11.296Z,8.83
2022-08-17T08:47:52.768Z,11.47
2022-08-17T08:50:37.290Z,8.13
2022-08-17T08:53:11.021Z,9.87
2022-08-17T08:55:45.475Z,9.07
2022-08-17T08:58:31.617Z,9.77
2022-08-17T09:01:16.859Z,8.50
2022-08-17T09:04:02.825Z,11.73
2022-08-17T09:06:46.127Z,11.13
2022-08-17T09:09:18.846Z,8.73
2022-08-17T09:12:02.062Z,13.63
2022-08-17T09:14:43.244Z,9.70
2022-08-17T09:17:18.535Z,11.70
2022-08-17T09:19:49.278Z,13.10
2022-08-17T09:22:23.188Z,12.00
2022-08-17T09:24:57.050Z,10.60
2022-08-17T09:27:26.586Z,10.47
2022-08-17T09:29:57.733Z,9.00
2022-08-17T09:32:32.610Z,11.73
2022-08-17T09:35:01.930Z,13.20
2022-08-17T09:37:31.653Z,9.23
2022-08-17T09:40:09.565Z,11.20
2022-08-17T09:42:41.001Z,12.83
2022-08-17T09:45:15.341Z,10.70
2022-08-17T09:47:49.213Z,14.00
2022-08-17T09:51:04.174Z,10.90
2022-08-17T09:53:09.355Z,12.03
2022-08-17T09:55:44.243Z,10.50
2022-08-17T09:58:15.555Z,12.40
2022-08-17T10:00:49.391Z,11.03
2022-08-17T10:03:35.073Z,23.30
2022-08-17T10:06:07.744Z,12.63
2022-08-17T10:08:39.834Z,14.40
2022-08-17T10:11:16.191Z,11.50
2022-08-17T10:13:52.748Z,12.63
2022-08-17T10:16:22.953Z,17.00
2022-08-17T10:18:56.853Z,14.63
2022-08-17T10:21:42.676Z,14.90
2022-08-17T10:24:30.749Z,13.90
2022-08-17T10:27:00.192Z,15.83
2022-08-17T10:29:29.122Z,23.87
2022-08-17T10:31:59.730Z,11.87
2022-08-17T10:34:40.357Z,14.57
2022-08-17T10:37:12.404Z,14.73
2022-08-17T10:39:52.149Z,12.23
2022-08-17T10:42:30.256Z,12.40
2022-08-17T10:45:02.694Z,16.67
2022-08-17T10:48:04.670Z,13.27
2022-08-17T10:50:54.143Z,13.87
2022-08-17T10:53:40.631Z,12.80
2022-08-17T10:56:21.752Z,18.50
2022-08-17T10:58:50.446Z,15.53
2022-08-17T11:01:18.494Z,14.70
2022-08-17T11:03:54.740Z,10.53
2022-08-17T11:06:26.170Z,13.57
2022-08-17T11:09:08.249Z,16.77
2022-08-17T11:11:47.340Z,13.40
2022-08-17T11:14:23.957Z,11.60
2022-08-17T11:16:59.075Z,16.83
2022-08-17T11:19:56.607Z,13.53
2022-08-17T11:22:37.612Z,11.43
2022-08-17T11:25:12.872Z,14.87
2022-08-17T11:27:42.345Z,11.90
2022-08-17T11:30:12.678Z,11.40
2022-08-17T11:32:47.998Z,13.73
2022-08-17T11:35:30.290Z,12.30
2022-08-17T11:38:10.822Z,11.97
2022-08-17T11:40:53.364Z,14.57
2022-08-17T11:43:42.930Z,11.87
2022-08-17T11:46:51.892Z,13.57
2022-08-17T11:49:41.519Z,12.73
2022-08-17T11:52:35.405Z,11.90
2022-08-17T11:55:24.132Z,14.00
2022-08-17T11:58:00.920Z,11.47
2022-08-17T12:00:47.029Z,13.30
2022-08-17T12:03:24.810Z,15.43
2022-08-17T12:05:53.476Z,12.87
2022-08-17T12:08:22.654Z,13.33
2022-08-17T12:10:54.463Z,13.30
2022-08-17T12:13:23.627Z,12.60
2022-08-17T12:15:58.406Z,17.60
2022-08-17T12:18:28.870Z,12.00
2022-08-17T12:21:07.090Z,12.00
2022-08-17T12:23:37.041Z,15.00
2022-08-17T12:26:09.402Z,11.60
2022-08-17T12:28:39.017Z,14.50
2022-08-17T12:31:07.513Z,12.80
2022-08-17T12:33:37.205Z,14.67
2022-08-17T12:36:06.359Z,11.83
2022-08-17T12:38:35.949Z,10.40
2022-08-17T12:41:25.299Z,12.20
2022-08-17T12:43:56.750Z,11.27
2022-08-17T12:46:24.254Z,11.10
2022-08-17T12:48:54.915Z,10.80
2022-08-17T12:51:27.595Z,11.93
2022-08-17T12:53:55.639Z,11.80
2022-08-17T12:56:23.118Z,16.23
2022-08-17T12:58:54.388Z,12.47
2022-08-17T13:01:23.376Z,13.20
2022-08-17T13:03:52.498Z,11.67
2022-08-17T13:06:28.830Z,14.30
2022-08-17T13:08:56.293Z,11.40
2022-08-17T13:11:25.070Z,13.50
2022-08-17T13:13:55.034Z,12.83
2022-08-17T13:16:23.995Z,12.63
2022-08-17T13:18:53.567Z,11.17
2022-08-17T13:21:26.611Z,12.73
2022-08-17T13:24:03.091Z,12.97
2022-08-17T13:26:32.772Z,11.17
2022-08-17T13:29:01.065Z,11.83
2022-08-17T13:31:48.320Z,13.03
2022-08-17T13:34:31.682Z,16.13
2022-08-17T13:37:26.915Z,12.23
2022-08-17T13:39:56.130Z,12.23
2022-08-17T13:42:30.552Z,11.57
2022-08-17T13:44:58.629Z,11.50
2022-08-17T13:47:26.567Z,12.20
2022-08-17T13:49:55.249Z,15.30
2022-08-17T13:52:37.935Z,14.27
2022-08-17T13:55:08.906Z,15.73
2022-08-17T13:57:36.577Z,12.90
2022-08-17T14:00:12.385Z,15.40
2022-08-17T14:02:39.934Z,15.33
2022-08-17T14:05:07.557Z,11.80
2022-08-17T14:07:40.029Z,13.87
2022-08-17T14:10:11.206Z,18.00
2022-08-17T14:12:40.030Z,15.40
2022-08-17T14:15:08.671Z,13.80
2022-08-17T14:17:38.914Z,12.23
2022-08-17T14:20:09.389Z,13.10
2022-08-17T14:22:38.834Z,12.87
2022-08-17T14:25:10.268Z,13.37
2022-08-17T14:27:47.132Z,13.20
2022-08-17T14:30:22.017Z,12.47
2022-08-17T14:32:51.691Z,16.60
2022-08-17T14:35:21.887Z,14.03
2022-08-17T14:37:49.677Z,11.80
2022-08-17T14:40:20.736Z,13.90
2022-08-17T14:42:49.793Z,11.90
2022-08-17T14:45:31.983Z,11.80
2022-08-17T14:48:00.937Z,12.40
2022-08-17T14:50:28.397Z,11.50
2022-08-17T14:52:56.546Z,12.83
2022-08-17T14:55:25.694Z,12.23
2022-08-17T14:57:54.538Z,11.30
2022-08-17T15:00:22.130Z,14.27
2022-08-17T15:02:53.645Z,15.50
2022-08-17T15:05:21.826Z,10.63
2022-08-17T15:07:49.418Z,12.93
2022-08-17T15:10:17.602Z,11.90
2022-08-17T15:12:45.428Z,11.37
2022-08-17T15:15:15.680Z,11.03
2022-08-17T15:17:45.950Z,11.37
2022-08-17T15:20:15.164Z,11.00
2022-08-17T15:22:43.141Z,11.57
2022-08-17T15:25:12.288Z,12.77
2022-08-17T15:27:40.275Z,14.53
2022-08-17T15:30:08.476Z,11.80
2022-08-17T15:32:38.947Z,16.17
2022-08-17T15:35:08.772Z,12.33
2022-08-17T15:37:36.378Z,12.13
2022-08-17T15:40:05.027Z,12.53
2022-08-17T15:42:32.914Z,11.00
2022-08-17T15:45:05.985Z,11.37
2022-08-17T15:47:33.499Z,11.57
2022-08-17T15:50:05.441Z,13.53
2022-08-17T15:52:37.841Z,13.03
2022-08-17T15:55:06.157Z,12.77
2022-08-17T15:57:34.666Z,14.23
2022-08-17T16:00:03.145Z,14.63
2022-08-17T16:03:16.042Z,11.97
2022-08-17T16:05:24.877Z,13.37
2022-08-17T16:07:53.406Z,11.37
2022-08-17T16:10:21.657Z,14.50
2022-08-17T16:13:02.042Z,14.37
2022-08-17T16:15:31.149Z,11.40
2022-08-17T16:17:58.705Z,11.33
2022-08-17T16:20:27.891Z,13.90
2022-08-17T16:22:55.697Z,12.23
2022-08-17T16:25:50.296Z,12.83
2022-08-17T16:28:12.683Z,17.07
2022-08-17T16:30:41.161Z,12.67
2022-08-17T16:33:11.275Z,14.13
2022-08-17T16:35:41.798Z,13.77
2022-08-17T16:38:09.458Z,15.50
2022-08-17T16:40:37.221Z,14.57
2022-08-17T16:43:07.017Z,16.17
2022-08-17T16:45:36.488Z,14.50
2022-08-17T16:48:04.642Z,15.37
2022-08-17T16:50:33.779Z,12.97
2022-08-17T16:53:06.545Z,12.60
2022-08-17T16:55:35.439Z,13.43
2022-08-17T16:58:03.494Z,11.13
2022-08-17T17:00:31.073Z,12.23
2022-08-17T17:03:19.156Z,19.23
2022-08-17T17:05:55.170Z,13.67
2022-08-17T17:08:28.411Z,12.30
2022-08-17T17:10:56.767Z,12.97
2022-08-17T17:13:26.624Z,12.13
2022-08-17T17:15:55.191Z,17.47
2022-08-17T17:18:26.443Z,10.97
2022-08-17T17:20:55.913Z,15.30
2022-08-17T17:23:33.119Z,21.43
2022-08-17T17:26:10.188Z,16.00
2022-08-17T17:28:40.528Z,14.83
2022-08-17T17:31:11.612Z,17.87
2022-08-17T17:33:41.301Z,18.33
2022-08-17T17:36:13.471Z,18.30
2022-08-17T17:38:45.237Z,12.30
2022-08-17T17:41:14.083Z,11.20
2022-08-17T17:43:42.229Z,11.50
2022-08-17T17:46:27.306Z,12.53
2022-08-17T17:48:56.734Z,12.30
2022-08-17T17:52:06.484Z,11.50
2022-08-17T17:54:22.314Z,12.37
2022-08-17T17:56:54.952Z,13.70
2022-08-17T17:59:28.164Z,14.27
2022-08-17T18:02:00.251Z,11.57
2022-08-17T18:04:29.837Z,12.47
2022-08-17T18:07:03.380Z,11.43
2022-08-17T18:09:53.704Z,11.30
2022-08-17T18:12:28.318Z,11.37
2022-08-17T18:15:04.394Z,11.13
2022-08-17T18:17:33.834Z,11.57
2022-08-17T18:20:01.415Z,11.90
2022-08-17T18:22:29.124Z,10.97
2022-08-17T18:24:57.999Z,10.53
2022-08-17T18:27:30.091Z,11.93
2022-08-17T18:29:58.821Z,11.80
2022-08-17T18:32:33.791Z,11.23
2022-08-17T18:35:03.138Z,10.97
2022-08-17T18:37:32.950Z,11.17
2022-08-17T18:40:09.427Z,11.53
2022-08-17T18:42:38.644Z,10.10
2022-08-17T18:45:06.378Z,10.70
2022-08-17T18:47:33.850Z,11.57
2022-08-17T18:50:19.645Z,11.07
2022-08-17T18:52:48.508Z,11.27
2022-08-17T18:55:20.855Z,10.73
2022-08-17T18:57:49.557Z,10.43
2022-08-17T19:00:36.456Z,12.63
2022-08-17T19:03:17.846Z,11.70
2022-08-17T19:05:46.957Z,12.53
2022-08-17T19:08:23.616Z,11.37
2022-08-17T19:10:54.100Z,13.70
2022-08-17T19:13:24.510Z,13.23
2022-08-17T19:16:15.101Z,17.30
2022-08-17T19:18:44.249Z,11.10
2022-08-17T19:21:13.672Z,13.23
2022-08-17T19:23:53.433Z,15.90
2022-08-17T19:26:54.051Z,11.73
2022-08-17T19:29:16.648Z,10.80
2022-08-17T19:31:47.262Z,22.00
2022-08-17T19:34:15.988Z,11.70
2022-08-17T19:36:45.302Z,11.97
2022-08-17T19:39:19.009Z,12.60
2022-08-17T19:41:51.791Z,13.53
2022-08-17T19:44:32.155Z,12.30
2022-08-17T19:47:06.210Z,13.33
2022-08-17T19:49:40.958Z,12.07
2022-08-17T19:52:17.929Z,11.53
2022-08-17T19:54:47.891Z,12.50
2022-08-17T19:57:19.573Z,12.80
2022-08-17T19:59:49.476Z,12.77
2022-08-17T20:02:24.368Z,14.73
2022-08-17T20:04:54.060Z,12.13
2022-08-17T20:07:24.580Z,15.07
2022-08-17T20:09:54.772Z,12.30
2022-08-17T20:12:25.235Z,12.63
2022-08-17T20:14:55.880Z,11.63
2022-08-17T20:17:24.579Z,12.47
2022-08-17T20:19:59.684Z,14.03
2022-08-17T20:22:29.979Z,11.87
2022-08-17T20:25:01.344Z,12.20
2022-08-17T20:27:32.500Z,12.20
2022-08-17T20:30:01.887Z,12.30
2022-08-17T20:32:30.090Z,11.50
2022-08-17T20:35:08.787Z,12.60
2022-08-17T20:37:38.139Z,12.73
2022-08-17T20:40:19.269Z,12.27
2022-08-17T20:42:48.433Z,15.57
2022-08-17T20:45:34.637Z,11.63
2022-08-17T20:50:52.375Z,12.53
2022-08-17T20:53:53.305Z,12.30
2022-08-17T20:56:36.151Z,12.83
2022-08-17T20:59:04.941Z,13.20
2022-08-17T21:01:38.762Z,12.30
2022-08-17T21:04:08.056Z,12.23
2022-08-17T21:06:35.550Z,12.87
2022-08-17T21:09:17.887Z,16.30
2022-08-17T21:12:04.330Z,13.13
2022-08-17T21:14:55.518Z,13.03
2022-08-17T21:17:38.074Z,13.30
2022-08-17T21:20:11.782Z,13.07
2022-08-17T21:22:47.075Z,12.03
2022-08-17T21:25:21.124Z,13.20
2022-08-17T21:27:55.419Z,12.50
2022-08-17T21:30:42.682Z,11.93
2022-08-17T21:33:20.083Z,12.73
2022-08-17T21:35:49.546Z,13.53
2022-08-17T21:38:20.399Z,12.90
2022-08-17T21:40:50.514Z,13.00
2022-08-17T21:43:23.380Z,14.30
2022-08-17T21:45:57.643Z,12.43
2022-08-17T21:48:26.984Z,12.73
2022-08-17T21:50:59.141Z,12.90
2022-08-17T21:53:32.743Z,17.23
2022-08-17T21:56:00.619Z,11.83
2022-08-17T21:58:30.394Z,12.50
2022-08-17T22:01:21.861Z,29.17
2022-08-17T22:03:55.435Z,11.90
2022-08-17T22:06:24.652Z,12.17
2022-08-17T22:09:02.559Z,14.03
2022-08-17T22:11:30.411Z,12.23
2022-08-17T22:14:05.122Z,12.33
2022-08-17T22:16:34.793Z,12.77
2022-08-17T22:19:02.339Z,13.00
2022-08-17T22:21:29.792Z,13.50
2022-08-17T22:24:04.896Z,13.73
2022-08-17T22:26:51.138Z,12.73
2022-08-17T22:29:33.475Z,12.90
2022-08-17T22:32:02.276Z,12.80
2022-08-17T22:34:29.780Z,12.87
2022-08-17T22:37:12.104Z,12.97
2022-08-17T22:39:40.582Z,12.40
2022-08-17T22:42:13.467Z,12.20
2022-08-17T22:44:46.941Z,14.43
2022-08-17T22:47:29.267Z,12.93
2022-08-17T22:49:57.886Z,13.07
2022-08-17T22:52:33.579Z,12.27
2022-08-17T22:55:20.316Z,12.80
2022-08-17T22:58:06.083Z,13.47
2022-08-17T23:00:37.295Z,13.67
2022-08-17T23:03:11.373Z,12.60
2022-08-17T23:05:39.508Z,13.20
2022-08-17T23:08:07.238Z,13.60
2022-08-17T23:10:35.982Z,12.50
2022-08-17T23:13:03.491Z,12.73
2022-08-17T23:15:33.191Z,17.13
2022-08-17T23:18:04.818Z,12.60
2022-08-17T23:20:34.730Z,12.50
2022-08-17T23:23:03.378Z,13.00
2022-08-17T23:25:31.838Z,12.80
2022-08-17T23:28:01.928Z,12.57
2022-08-17T23:30:30.245Z,13.73
2022-08-17T23:33:01.247Z,13.80
2022-08-17T23:35:40.387Z,13.23
2022-08-17T23:38:10.240Z,12.93
2022-08-17T23:40:37.838Z,13.20
2022-08-17T23:43:09.809Z,12.83
2022-08-17T23:45:51.374Z,13.83
2022-08-17T23:48:28.479Z,12.90
2022-08-17T23:51:04.316Z,13.40
2022-08-17T23:53:34.741Z,12.93
2022-08-17T23:56:09.225Z,12.70
2022-08-17T23:58:38.731Z,13.50
